createdAt,value
2019-04-30T00:00:18.770Z,10.55
2019-04-30T00:01:19.115Z,10.58
2019-04-30T00:02:19.064Z,10.55
2019-04-30T00:03:19.649Z,10.63
2019-04-30T00:04:19.358Z,10.52
2019-04-30T00:05:19.509Z,10.47
2019-04-30T00:06:19.656Z,10.52
2019-04-30T00:07:19.806Z,10.51
2019-04-30T00:08:19.950Z,10.46
2019-04-30T00:09:20.099Z,10.56
2019-04-30T00:10:20.247Z,10.56
2019-04-30T00:11:20.394Z,10.55
2019-04-30T00:12:20.543Z,10.53
2019-04-30T00:13:21.085Z,10.56
2019-04-30T00:14:20.839Z,10.52
2019-04-30T00:15:20.986Z,10.52
2019-04-30T00:16:21.133Z,10.52
2019-04-30T00:17:21.283Z,10.60
2019-04-30T00:18:21.431Z,10.55
2019-04-30T00:19:21.579Z,10.60
2019-04-30T00:20:21.728Z,10.66
2019-04-30T00:21:21.876Z,10.59
2019-04-30T00:22:31.737Z,10.65
2019-04-30T00:23:22.622Z,10.62
2019-04-30T00:24:22.334Z,10.58
2019-04-30T00:25:27.014Z,10.53
2019-04-30T00:26:22.611Z,10.55
2019-04-30T00:27:26.341Z,10.39
2019-04-30T00:28:22.907Z,10.43
2019-04-30T00:29:27.059Z,10.37
2019-04-30T00:30:25.109Z,10.39
2019-04-30T00:31:25.673Z,10.47
2019-04-30T00:32:23.494Z,10.39
2019-04-30T00:33:27.465Z,10.39
2019-04-30T00:34:24.983Z,10.37
2019-04-30T00:35:25.403Z,10.46
2019-04-30T00:36:27.538Z,10.36
2019-04-30T00:37:25.454Z,10.33
2019-04-30T00:38:25.289Z,10.34
2019-04-30T00:39:27.024Z,10.40
2019-04-30T00:40:26.666Z,10.33
2019-04-30T00:41:25.614Z,10.30
2019-04-30T00:42:28.587Z,10.30
2019-04-30T00:43:25.316Z,10.30
2019-04-30T00:44:28.298Z,10.28
2019-04-30T00:45:25.408Z,10.34
2019-04-30T00:46:29.193Z,10.18
2019-04-30T00:47:25.799Z,10.18
2019-04-30T00:48:30.314Z,10.15
2019-04-30T00:49:26.700Z,10.17
2019-04-30T00:50:29.040Z,10.12
2019-04-30T00:51:26.344Z,10.09
2019-04-30T00:52:29.530Z,10.04
2019-04-30T00:53:26.584Z,10.03
2019-04-30T00:54:27.914Z,10.04
2019-04-30T00:55:26.881Z,10.03
2019-04-30T00:56:28.335Z,9.97
2019-04-30T00:57:27.175Z,9.94
2019-04-30T00:58:30.297Z,9.94
2019-04-30T00:59:27.470Z,9.96
2019-04-30T01:00:29.650Z,9.96
2019-04-30T01:01:27.765Z,10.00
2019-04-30T01:02:32.052Z,9.86
2019-04-30T01:03:28.056Z,9.94
2019-04-30T01:04:28.285Z,10.01
2019-04-30T01:05:28.357Z,10.01
2019-04-30T01:06:28.768Z,9.97
2019-04-30T01:07:28.647Z,9.99
2019-04-30T01:08:28.812Z,9.91
2019-04-30T01:09:28.939Z,9.88
2019-04-30T01:10:29.085Z,9.88
2019-04-30T01:11:29.233Z,9.89
2019-04-30T01:12:35.947Z,9.93
2019-04-30T01:13:29.530Z,9.79
2019-04-30T01:14:31.991Z,9.82
2019-04-30T01:15:29.819Z,9.83
2019-04-30T01:16:32.816Z,9.83
2019-04-30T01:17:30.129Z,9.70
2019-04-30T01:18:32.066Z,9.82
2019-04-30T01:19:32.850Z,9.81
2019-04-30T01:20:32.711Z,9.78
2019-04-30T01:21:30.704Z,9.79
2019-04-30T01:22:32.967Z,9.78
2019-04-30T01:23:30.998Z,9.70
2019-04-30T01:24:31.604Z,9.76
2019-04-30T01:25:31.291Z,9.71
2019-04-30T01:26:31.437Z,9.70
2019-04-30T01:27:31.583Z,9.75
2019-04-30T01:28:31.732Z,9.71
2019-04-30T01:29:38.083Z,9.75
2019-04-30T01:30:32.024Z,9.83
2019-04-30T01:31:37.504Z,9.73
2019-04-30T01:32:32.321Z,9.67
2019-04-30T01:33:34.689Z,9.75
2019-04-30T01:34:32.617Z,9.78
2019-04-30T01:35:32.922Z,9.75
2019-04-30T01:36:32.907Z,9.71
2019-04-30T01:37:33.058Z,9.70
2019-04-30T01:38:33.200Z,9.68
2019-04-30T01:39:33.347Z,9.66
2019-04-30T01:40:33.492Z,9.58
2019-04-30T01:41:33.638Z,9.57
2019-04-30T01:42:33.786Z,9.58
2019-04-30T01:43:34.735Z,9.48
2019-04-30T01:44:34.077Z,9.49
2019-04-30T01:45:34.226Z,9.49
2019-04-30T01:46:34.371Z,9.49
2019-04-30T01:47:34.518Z,9.60
2019-04-30T01:48:34.665Z,9.56
2019-04-30T01:49:42.125Z,9.50
2019-04-30T01:50:38.671Z,9.49
2019-04-30T01:51:35.105Z,9.52
2019-04-30T01:52:36.120Z,9.52
2019-04-30T01:53:35.398Z,9.49
2019-04-30T01:54:35.545Z,9.52
2019-04-30T01:55:35.691Z,9.48
2019-04-30T01:56:35.837Z,9.46
2019-04-30T01:57:35.984Z,9.43
2019-04-30T01:58:36.131Z,9.35
2019-04-30T01:59:36.278Z,9.46
2019-04-30T02:00:36.426Z,9.35
2019-04-30T02:01:36.571Z,9.35
2019-04-30T02:02:36.720Z,9.32
2019-04-30T02:03:36.867Z,9.28
2019-04-30T02:04:39.280Z,9.28
2019-04-30T02:05:38.605Z,9.24
2019-04-30T02:06:39.110Z,9.24
2019-04-30T02:07:40.144Z,9.18
2019-04-30T02:08:39.267Z,9.10
2019-04-30T02:09:38.821Z,9.10
2019-04-30T02:10:37.895Z,9.12
2019-04-30T02:11:38.817Z,9.10
2019-04-30T02:12:39.261Z,9.10
2019-04-30T02:13:39.210Z,9.06
2019-04-30T02:14:39.493Z,8.94
2019-04-30T02:15:39.040Z,9.02
2019-04-30T02:16:39.573Z,9.04
2019-04-30T02:17:38.984Z,8.94
2019-04-30T02:18:39.406Z,9.09
2019-04-30T02:19:39.217Z,9.04
2019-04-30T02:20:39.363Z,9.05
2019-04-30T02:21:39.509Z,8.91
2019-04-30T02:22:39.669Z,8.91
2019-04-30T02:23:39.801Z,8.83
2019-04-30T02:24:39.948Z,8.81
2019-04-30T02:25:40.095Z,8.78
2019-04-30T02:26:40.243Z,8.73
2019-04-30T02:27:40.391Z,8.75
2019-04-30T02:28:40.537Z,8.78
2019-04-30T02:29:40.684Z,8.63
2019-04-30T02:30:40.832Z,8.71
2019-04-30T02:31:40.998Z,8.66
2019-04-30T02:32:41.127Z,8.73
2019-04-30T02:33:41.272Z,8.72
2019-04-30T02:34:44.203Z,8.66
2019-04-30T02:35:41.566Z,8.62
2019-04-30T02:36:41.715Z,8.71
2019-04-30T02:37:43.483Z,8.68
2019-04-30T02:38:42.007Z,8.62
2019-04-30T02:39:42.154Z,8.66
2019-04-30T02:40:42.753Z,8.62
2019-04-30T02:41:42.450Z,8.62
2019-04-30T02:42:42.596Z,8.55
2019-04-30T02:43:42.749Z,8.51
2019-04-30T02:44:42.891Z,8.60
2019-04-30T02:45:43.041Z,8.57
2019-04-30T02:46:43.197Z,8.71
2019-04-30T02:47:43.333Z,8.60
2019-04-30T02:48:43.479Z,8.58
2019-04-30T02:49:43.626Z,8.63
2019-04-30T02:50:43.777Z,8.58
2019-04-30T02:51:43.922Z,8.60
2019-04-30T02:52:44.068Z,8.58
2019-04-30T02:53:44.217Z,8.57
2019-04-30T02:54:44.366Z,8.58
2019-04-30T02:55:44.512Z,8.63
2019-04-30T02:56:44.656Z,8.54
2019-04-30T02:57:44.800Z,8.55
2019-04-30T02:58:44.957Z,8.51
2019-04-30T02:59:45.094Z,8.60
2019-04-30T03:00:45.241Z,8.51
2019-04-30T03:01:45.388Z,8.50
2019-04-30T03:02:45.534Z,8.44
2019-04-30T03:03:45.693Z,8.44
2019-04-30T03:04:45.829Z,8.45
2019-04-30T03:05:45.976Z,8.47
2019-04-30T03:06:46.127Z,8.44
2019-04-30T03:07:46.281Z,8.40
2019-04-30T03:08:46.418Z,8.35
2019-04-30T03:09:46.566Z,8.39
2019-04-30T03:10:46.710Z,8.25
2019-04-30T03:11:49.594Z,8.29
2019-04-30T03:12:47.003Z,8.28
2019-04-30T03:13:49.518Z,8.26
2019-04-30T03:14:49.748Z,8.22
2019-04-30T03:15:49.348Z,8.29
2019-04-30T03:16:52.562Z,8.30
2019-04-30T03:17:50.373Z,8.30
2019-04-30T03:18:49.942Z,8.22
2019-04-30T03:19:50.205Z,8.30
2019-04-30T03:20:49.733Z,8.42
2019-04-30T03:21:50.244Z,8.36
2019-04-30T03:22:51.092Z,8.51
2019-04-30T03:23:50.307Z,8.44
2019-04-30T03:24:50.168Z,8.48
2019-04-30T03:25:50.179Z,8.36
2019-04-30T03:26:49.922Z,8.42
2019-04-30T03:27:49.821Z,8.42
2019-04-30T03:28:49.480Z,8.33
2019-04-30T03:29:50.377Z,8.39
2019-04-30T03:30:56.336Z,8.44
2019-04-30T03:31:52.360Z,8.35
2019-04-30T03:32:56.067Z,8.42
2019-04-30T03:33:52.403Z,8.25
2019-04-30T03:34:51.685Z,8.35
2019-04-30T03:35:54.396Z,8.40
2019-04-30T03:36:50.635Z,8.37
2019-04-30T03:37:50.674Z,8.33
2019-04-30T03:38:50.820Z,8.30
2019-04-30T03:39:50.965Z,8.26
2019-04-30T03:40:51.119Z,8.30
2019-04-30T03:41:51.272Z,8.37
2019-04-30T03:42:51.408Z,8.45
2019-04-30T03:43:51.553Z,8.47
2019-04-30T03:44:51.699Z,8.40
2019-04-30T03:45:51.846Z,8.45
2019-04-30T03:46:51.992Z,8.39
2019-04-30T03:47:52.139Z,8.48
2019-04-30T03:48:52.284Z,8.37
2019-04-30T03:49:52.433Z,8.37
2019-04-30T03:50:56.608Z,8.30
2019-04-30T03:51:52.723Z,8.26
2019-04-30T03:52:52.869Z,8.26
2019-04-30T03:53:53.016Z,8.21
2019-04-30T03:54:53.170Z,8.25
2019-04-30T03:55:53.310Z,8.15
2019-04-30T03:56:53.457Z,8.18
2019-04-30T03:57:53.605Z,8.26
2019-04-30T03:58:53.752Z,8.17
2019-04-30T03:59:53.902Z,8.17
2019-04-30T04:00:54.045Z,8.11
2019-04-30T04:01:54.192Z,8.22
2019-04-30T04:02:54.338Z,8.02
2019-04-30T04:03:54.486Z,8.04
2019-04-30T04:04:54.632Z,8.00
2019-04-30T04:05:54.779Z,8.08
2019-04-30T04:06:54.926Z,8.02
2019-04-30T04:07:55.072Z,8.10
2019-04-30T04:08:55.218Z,8.03
2019-04-30T04:09:55.368Z,7.85
2019-04-30T04:10:55.513Z,7.99
2019-04-30T04:11:55.664Z,7.93
2019-04-30T04:12:55.812Z,8.00
2019-04-30T04:13:55.954Z,7.92
2019-04-30T04:14:56.117Z,7.87
2019-04-30T04:15:56.247Z,7.78
2019-04-30T04:16:56.393Z,7.78
2019-04-30T04:17:56.541Z,7.77
2019-04-30T04:18:56.777Z,7.78
2019-04-30T04:19:59.577Z,7.77
2019-04-30T04:21:08.740Z,7.74
2019-04-30T04:21:57.127Z,7.71
2019-04-30T04:22:59.677Z,7.74
2019-04-30T04:24:00.130Z,7.69
2019-04-30T04:25:00.120Z,7.71
2019-04-30T04:25:59.600Z,7.63
2019-04-30T04:26:59.675Z,7.72
2019-04-30T04:28:00.176Z,7.77
2019-04-30T04:28:59.482Z,7.72
2019-04-30T04:30:01.041Z,7.74
2019-04-30T04:31:00.105Z,7.72
2019-04-30T04:32:00.879Z,7.69
2019-04-30T04:32:59.902Z,7.69
2019-04-30T04:34:00.102Z,7.79
2019-04-30T04:35:00.147Z,7.93
2019-04-30T04:35:59.790Z,7.90
2019-04-30T04:37:00.098Z,7.87
2019-04-30T04:38:00.349Z,8.03
2019-04-30T04:39:00.122Z,8.10
2019-04-30T04:39:59.847Z,8.08
2019-04-30T04:41:03.065Z,8.04
2019-04-30T04:42:00.172Z,8.04
2019-04-30T04:43:00.500Z,8.17
2019-04-30T04:44:00.385Z,8.14
2019-04-30T04:45:00.499Z,8.18
2019-04-30T04:46:00.645Z,8.17
2019-04-30T04:47:00.798Z,8.02
2019-04-30T04:48:00.938Z,8.17
2019-04-30T04:49:01.091Z,8.02
2019-04-30T04:50:01.231Z,8.07
2019-04-30T04:51:01.378Z,8.00
2019-04-30T04:52:01.524Z,8.04
2019-04-30T04:53:01.673Z,8.08
2019-04-30T04:54:03.304Z,8.07
2019-04-30T04:55:01.970Z,8.07
2019-04-30T04:56:02.112Z,8.10
2019-04-30T04:57:13.202Z,8.15
2019-04-30T04:58:02.405Z,8.21
2019-04-30T04:59:02.551Z,8.18
2019-04-30T05:00:07.424Z,8.29
2019-04-30T05:01:02.845Z,8.33
2019-04-30T05:02:02.991Z,8.20
2019-04-30T05:03:03.138Z,8.29
2019-04-30T05:04:03.285Z,8.28
2019-04-30T05:05:03.433Z,8.28
2019-04-30T05:06:03.585Z,8.37
2019-04-30T05:07:03.727Z,8.36
2019-04-30T05:08:03.874Z,8.29
2019-04-30T05:09:04.023Z,8.37
2019-04-30T05:10:04.173Z,8.33
2019-04-30T05:11:04.313Z,8.32
2019-04-30T05:12:04.465Z,8.36
2019-04-30T05:13:04.607Z,8.37
2019-04-30T05:14:04.755Z,8.36
2019-04-30T05:15:04.894Z,8.45
2019-04-30T05:16:05.041Z,8.35
2019-04-30T05:17:05.188Z,8.42
2019-04-30T05:18:05.337Z,8.54
2019-04-30T05:19:05.482Z,8.47
2019-04-30T05:20:05.630Z,8.44
2019-04-30T05:21:05.778Z,8.50
2019-04-30T05:22:05.928Z,8.51
2019-04-30T05:23:06.073Z,8.57
2019-04-30T05:24:06.223Z,8.58
2019-04-30T05:25:08.663Z,8.51
2019-04-30T05:26:06.517Z,8.55
2019-04-30T05:27:06.664Z,8.63
2019-04-30T05:28:08.596Z,8.62
2019-04-30T05:29:06.957Z,8.72
2019-04-30T05:30:07.104Z,8.66
2019-04-30T05:31:08.767Z,8.78
2019-04-30T05:32:09.152Z,8.71
2019-04-30T05:33:08.863Z,8.75
2019-04-30T05:34:10.088Z,8.79
2019-04-30T05:35:09.462Z,8.75
2019-04-30T05:36:09.277Z,8.84
2019-04-30T05:37:09.041Z,8.81
2019-04-30T05:38:09.293Z,8.83
2019-04-30T05:39:08.787Z,8.75
2019-04-30T05:40:09.166Z,8.96
2019-04-30T05:41:09.315Z,8.90
2019-04-30T05:42:08.890Z,8.87
2019-04-30T05:43:11.227Z,8.84
2019-04-30T05:44:09.212Z,8.88
2019-04-30T05:45:09.569Z,8.86
2019-04-30T05:46:11.001Z,8.86
2019-04-30T05:47:09.607Z,8.83
2019-04-30T05:48:09.759Z,8.79
2019-04-30T05:49:09.919Z,8.83
2019-04-30T05:50:10.040Z,8.87
2019-04-30T05:51:10.192Z,8.93
2019-04-30T05:52:11.666Z,8.94
2019-04-30T05:53:10.482Z,8.93
2019-04-30T05:54:10.628Z,9.05
2019-04-30T05:55:10.774Z,9.18
2019-04-30T05:56:10.922Z,9.05
2019-04-30T05:57:11.068Z,9.16
2019-04-30T05:58:11.215Z,9.18
2019-04-30T05:59:11.365Z,9.23
2019-04-30T06:00:11.508Z,9.27
2019-04-30T06:01:11.656Z,9.32
2019-04-30T06:02:11.803Z,9.35
2019-04-30T06:03:11.956Z,9.35
2019-04-30T06:04:12.097Z,9.40
2019-04-30T06:05:12.243Z,9.43
2019-04-30T06:06:12.392Z,9.49
2019-04-30T06:07:12.538Z,9.50
2019-04-30T06:08:12.685Z,9.45
2019-04-30T06:09:16.171Z,9.60
2019-04-30T06:10:12.980Z,9.52
2019-04-30T06:11:13.127Z,9.49
2019-04-30T06:12:13.276Z,9.53
2019-04-30T06:13:13.423Z,9.53
2019-04-30T06:14:13.572Z,9.68
2019-04-30T06:15:13.733Z,9.61
2019-04-30T06:16:13.899Z,9.66
2019-04-30T06:17:14.006Z,9.67
2019-04-30T06:18:14.208Z,9.61
2019-04-30T06:19:14.298Z,9.63
2019-04-30T06:20:18.336Z,9.81
2019-04-30T06:21:14.595Z,9.66
2019-04-30T06:22:14.773Z,9.78
2019-04-30T06:23:14.924Z,9.71
2019-04-30T06:24:15.073Z,9.76
2019-04-30T06:25:26.984Z,9.64
2019-04-30T06:26:15.375Z,9.58
2019-04-30T06:27:15.513Z,9.75
2019-04-30T06:28:15.658Z,9.85
2019-04-30T06:29:15.808Z,9.81
2019-04-30T06:30:15.956Z,9.83
2019-04-30T06:31:16.103Z,9.88
2019-04-30T06:32:16.255Z,10.03
2019-04-30T06:33:16.400Z,9.91
2019-04-30T06:34:16.548Z,9.99
2019-04-30T06:35:16.697Z,9.99
2019-04-30T06:36:18.909Z,10.03
2019-04-30T06:37:19.270Z,10.01
2019-04-30T06:38:18.507Z,10.04
2019-04-30T06:39:18.777Z,10.18
2019-04-30T06:40:19.420Z,10.22
2019-04-30T06:41:17.584Z,10.25
2019-04-30T06:42:19.355Z,10.12
2019-04-30T06:43:19.043Z,9.97
2019-04-30T06:44:19.493Z,9.97
2019-04-30T06:45:19.152Z,10.03
2019-04-30T06:46:18.692Z,10.19
2019-04-30T06:47:20.024Z,10.28
2019-04-30T06:48:19.868Z,10.30
2019-04-30T06:49:19.486Z,10.26
2019-04-30T06:50:19.427Z,10.18
2019-04-30T06:51:19.091Z,10.18
2019-04-30T06:52:22.974Z,10.28
2019-04-30T06:53:19.387Z,10.09
2019-04-30T06:54:19.509Z,10.07
2019-04-30T06:55:19.658Z,10.06
2019-04-30T06:56:19.805Z,10.15
2019-04-30T06:57:20.062Z,10.25
2019-04-30T06:58:20.630Z,10.37
2019-04-30T06:59:20.330Z,10.36
2019-04-30T07:00:32.469Z,10.51
2019-04-30T07:01:20.547Z,10.47
2019-04-30T07:02:20.694Z,10.56
2019-04-30T07:03:20.843Z,10.59
2019-04-30T07:04:20.991Z,10.58
2019-04-30T07:05:21.139Z,10.65
2019-04-30T07:06:29.135Z,10.73
2019-04-30T07:07:23.027Z,10.65
2019-04-30T07:08:21.583Z,10.68
2019-04-30T07:09:21.730Z,10.70
2019-04-30T07:10:21.879Z,10.83
2019-04-30T07:11:22.026Z,10.63
2019-04-30T07:12:25.608Z,10.80
2019-04-30T07:13:22.324Z,10.86
2019-04-30T07:14:22.474Z,10.89
2019-04-30T07:15:22.622Z,10.78
2019-04-30T07:16:22.772Z,10.74
2019-04-30T07:17:22.920Z,10.74
2019-04-30T07:18:23.067Z,10.73
2019-04-30T07:19:31.967Z,10.96
2019-04-30T07:20:23.366Z,10.89
2019-04-30T07:21:23.513Z,10.73
2019-04-30T07:22:36.468Z,10.78
2019-04-30T07:23:23.808Z,10.86
2019-04-30T07:24:23.958Z,10.83
2019-04-30T07:25:24.106Z,10.94
2019-04-30T07:26:24.807Z,11.01
2019-04-30T07:27:24.445Z,11.10
2019-04-30T07:28:41.241Z,11.19
2019-04-30T07:29:24.698Z,11.25
2019-04-30T07:30:24.847Z,11.25
2019-04-30T07:31:24.996Z,11.44
2019-04-30T07:32:25.144Z,11.39
2019-04-30T07:33:25.292Z,11.31
2019-04-30T07:34:25.440Z,11.41
2019-04-30T07:35:25.589Z,11.44
2019-04-30T07:36:44.861Z,11.36
2019-04-30T07:37:25.885Z,11.20
2019-04-30T07:38:26.033Z,11.24
2019-04-30T07:39:31.690Z,11.39
2019-04-30T07:40:26.331Z,11.47
2019-04-30T07:41:26.480Z,11.54
2019-04-30T07:42:26.636Z,11.50
2019-04-30T07:43:28.808Z,11.68
2019-04-30T07:44:35.459Z,11.68
2019-04-30T07:45:31.537Z,11.70
2019-04-30T07:46:27.223Z,11.80
2019-04-30T07:47:29.618Z,11.96
2019-04-30T07:48:29.695Z,11.82
2019-04-30T07:49:46.210Z,11.85
2019-04-30T07:50:30.612Z,11.82
2019-04-30T07:51:31.131Z,11.87
2019-04-30T07:52:32.987Z,11.77
2019-04-30T07:53:28.267Z,11.78
2019-04-30T07:54:30.043Z,11.83
2019-04-30T07:55:29.568Z,11.90
2019-04-30T07:56:34.895Z,12.06
2019-04-30T07:57:29.160Z,12.21
2019-04-30T07:58:29.857Z,12.21
2019-04-30T07:59:30.187Z,12.16
2019-04-30T08:00:31.176Z,12.16
2019-04-30T08:01:29.625Z,12.23
2019-04-30T08:02:29.854Z,12.30
2019-04-30T08:03:30.616Z,12.48
2019-04-30T08:04:29.906Z,12.37
2019-04-30T08:05:30.061Z,12.45
2019-04-30T08:06:31.286Z,12.41
2019-04-30T08:07:30.445Z,12.56
2019-04-30T08:08:30.736Z,12.49
2019-04-30T08:09:39.241Z,12.60
2019-04-30T08:10:30.804Z,12.66
2019-04-30T08:11:34.418Z,12.64
2019-04-30T08:12:35.816Z,12.66
2019-04-30T08:13:32.673Z,12.82
2019-04-30T08:14:31.398Z,12.95
2019-04-30T08:15:31.547Z,12.97
2019-04-30T08:16:31.697Z,12.88
2019-04-30T08:17:31.848Z,12.92
2019-04-30T08:18:31.997Z,12.93
2019-04-30T08:19:32.149Z,12.81
2019-04-30T08:20:32.297Z,12.79
2019-04-30T08:21:32.448Z,12.81
2019-04-30T08:22:32.598Z,12.93
2019-04-30T08:23:36.845Z,12.88
2019-04-30T08:24:32.898Z,12.88
2019-04-30T08:25:33.051Z,12.97
2019-04-30T08:26:33.198Z,13.17
2019-04-30T08:27:33.346Z,12.97
2019-04-30T08:28:33.492Z,13.15
2019-04-30T08:29:33.646Z,13.11
2019-04-30T08:30:33.795Z,13.17
2019-04-30T08:31:33.945Z,13.22
2019-04-30T08:32:34.095Z,13.41
2019-04-30T08:33:34.246Z,13.44
2019-04-30T08:34:34.394Z,13.37
2019-04-30T08:35:34.545Z,13.58
2019-04-30T08:36:34.695Z,13.61
2019-04-30T08:37:34.844Z,13.70
2019-04-30T08:38:34.994Z,13.62
2019-04-30T08:39:35.143Z,13.65
2019-04-30T08:40:35.296Z,13.80
2019-04-30T08:41:35.448Z,13.77
2019-04-30T08:42:37.846Z,13.83
2019-04-30T08:43:35.750Z,13.80
2019-04-30T08:44:35.899Z,13.94
2019-04-30T08:45:36.051Z,13.87
2019-04-30T08:46:36.201Z,13.92
2019-04-30T08:47:36.353Z,13.91
2019-04-30T08:48:49.825Z,13.81
2019-04-30T08:49:36.893Z,13.91
2019-04-30T08:50:36.823Z,14.06
2019-04-30T08:51:38.779Z,13.79
2019-04-30T08:52:37.107Z,13.92
2019-04-30T08:53:38.514Z,13.99
2019-04-30T08:54:39.242Z,13.95
2019-04-30T08:55:39.137Z,13.95
2019-04-30T08:56:38.809Z,14.12
2019-04-30T08:57:39.568Z,14.14
2019-04-30T08:58:39.059Z,14.25
2019-04-30T08:59:39.457Z,14.25
2019-04-30T09:00:38.555Z,14.28
2019-04-30T09:01:38.752Z,14.39
2019-04-30T09:02:38.995Z,14.54
2019-04-30T09:03:39.251Z,14.60
2019-04-30T09:04:38.917Z,14.49
2019-04-30T09:05:39.067Z,14.46
2019-04-30T09:06:39.743Z,14.52
2019-04-30T09:07:39.371Z,14.52
2019-04-30T09:08:40.043Z,14.29
2019-04-30T09:09:39.671Z,14.28
2019-04-30T09:10:39.821Z,14.43
2019-04-30T09:11:52.401Z,14.38
2019-04-30T09:12:40.122Z,14.39
2019-04-30T09:13:40.273Z,14.35
2019-04-30T09:14:40.608Z,14.42
2019-04-30T09:15:40.576Z,14.37
2019-04-30T09:16:40.745Z,14.54
2019-04-30T09:17:40.877Z,14.68
2019-04-30T09:18:41.028Z,14.78
2019-04-30T09:19:41.179Z,14.80
2019-04-30T09:20:41.330Z,14.86
2019-04-30T09:21:41.482Z,14.80
2019-04-30T09:22:41.634Z,14.91
2019-04-30T09:23:49.442Z,14.83
2019-04-30T09:24:41.937Z,14.74
2019-04-30T09:25:42.090Z,14.80
2019-04-30T09:26:42.239Z,14.83
2019-04-30T09:27:42.392Z,14.87
2019-04-30T09:28:42.545Z,14.83
2019-04-30T09:29:44.604Z,14.84
2019-04-30T09:30:42.847Z,14.90
2019-04-30T09:31:42.999Z,14.99
2019-04-30T09:32:43.151Z,14.84
2019-04-30T09:33:43.303Z,14.81
2019-04-30T09:34:43.456Z,14.80
2019-04-30T09:35:43.608Z,14.87
2019-04-30T09:36:43.760Z,15.08
2019-04-30T09:37:43.911Z,15.24
2019-04-30T09:38:44.063Z,15.21
2019-04-30T09:39:44.216Z,15.11
2019-04-30T09:40:44.367Z,15.02
2019-04-30T09:41:44.520Z,15.09
2019-04-30T09:42:44.672Z,14.99
2019-04-30T09:43:44.845Z,15.03
2019-04-30T09:44:44.969Z,15.09
2019-04-30T09:45:45.121Z,15.12
2019-04-30T09:46:45.271Z,15.20
2019-04-30T09:47:45.424Z,15.13
2019-04-30T09:48:45.575Z,14.94
2019-04-30T09:49:45.727Z,14.99
2019-04-30T09:50:46.123Z,15.19
2019-04-30T09:51:46.031Z,15.19
2019-04-30T09:52:46.330Z,15.35
2019-04-30T09:53:56.605Z,15.31
2019-04-30T09:54:46.487Z,15.46
2019-04-30T09:55:46.640Z,15.38
2019-04-30T09:56:46.793Z,15.46
2019-04-30T09:57:48.704Z,15.54
2019-04-30T09:58:49.146Z,15.60
2019-04-30T09:59:48.587Z,15.35
2019-04-30T10:00:48.472Z,15.27
2019-04-30T10:01:47.551Z,15.23
2019-04-30T10:02:48.855Z,15.26
2019-04-30T10:03:50.121Z,15.30
2019-04-30T10:04:48.420Z,15.57
2019-04-30T10:05:49.134Z,15.57
2019-04-30T10:06:50.065Z,15.49
2019-04-30T10:07:49.334Z,15.66
2019-04-30T10:08:51.164Z,15.70
2019-04-30T10:09:50.795Z,15.92
2019-04-30T10:10:48.925Z,15.99
2019-04-30T10:11:50.120Z,15.97
2019-04-30T10:12:49.376Z,15.89
2019-04-30T10:13:49.377Z,15.96
2019-04-30T10:14:49.730Z,16.07
2019-04-30T10:15:50.199Z,16.11
2019-04-30T10:16:49.834Z,15.99
2019-04-30T10:17:49.988Z,15.97
2019-04-30T10:18:50.140Z,15.96
2019-04-30T10:19:50.292Z,15.93
2019-04-30T10:20:50.443Z,15.96
2019-04-30T10:21:50.597Z,15.96
2019-04-30T10:22:50.748Z,16.07
2019-04-30T10:23:50.902Z,16.11
2019-04-30T10:24:51.055Z,16.12
2019-04-30T10:25:51.209Z,16.23
2019-04-30T10:26:51.360Z,16.16
2019-04-30T10:27:51.511Z,16.23
2019-04-30T10:28:51.665Z,16.25
2019-04-30T10:29:51.819Z,16.41
2019-04-30T10:30:51.970Z,16.49
2019-04-30T10:31:52.125Z,16.58
2019-04-30T10:32:52.277Z,16.59
2019-04-30T10:33:52.428Z,16.48
2019-04-30T10:34:52.580Z,16.35
2019-04-30T10:35:52.733Z,16.34
2019-04-30T10:36:52.885Z,16.59
2019-04-30T10:37:53.037Z,16.56
2019-04-30T10:38:53.190Z,16.41
2019-04-30T10:39:53.343Z,16.52
2019-04-30T10:40:53.501Z,16.77
2019-04-30T10:41:53.647Z,16.92
2019-04-30T10:42:53.799Z,16.86
2019-04-30T10:43:53.953Z,16.86
2019-04-30T10:44:54.107Z,16.65
2019-04-30T10:45:54.261Z,16.65
2019-04-30T10:46:54.413Z,16.62
2019-04-30T10:47:54.567Z,16.52
2019-04-30T10:48:54.719Z,16.49
2019-04-30T10:49:54.874Z,16.55
2019-04-30T10:50:55.027Z,16.75
2019-04-30T10:51:55.180Z,16.70
2019-04-30T10:52:55.332Z,16.74
2019-04-30T10:53:55.487Z,16.77
2019-04-30T10:54:55.641Z,16.95
2019-04-30T10:55:55.791Z,17.03
2019-04-30T10:56:55.961Z,16.95
2019-04-30T10:57:56.096Z,17.03
2019-04-30T10:58:56.249Z,17.07
2019-04-30T10:59:56.405Z,17.03
2019-04-30T11:00:56.557Z,17.11
2019-04-30T11:01:56.711Z,17.15
2019-04-30T11:02:56.877Z,17.25
2019-04-30T11:03:57.027Z,17.26
2019-04-30T11:04:57.177Z,17.00
2019-04-30T11:05:58.559Z,16.96
2019-04-30T11:07:00.044Z,17.08
2019-04-30T11:07:59.364Z,17.33
2019-04-30T11:08:57.797Z,17.26
2019-04-30T11:09:58.827Z,17.20
2019-04-30T11:10:58.114Z,17.18
2019-04-30T11:11:59.414Z,17.40
2019-04-30T11:12:58.412Z,17.48
2019-04-30T11:13:58.564Z,17.43
2019-04-30T11:14:58.714Z,17.14
2019-04-30T11:16:06.491Z,17.29
2019-04-30T11:16:59.930Z,17.28
2019-04-30T11:17:59.701Z,17.30
2019-04-30T11:18:59.521Z,17.41
2019-04-30T11:19:59.687Z,17.57
2019-04-30T11:20:59.994Z,17.43
2019-04-30T11:21:59.978Z,17.57
2019-04-30T11:23:00.090Z,17.63
2019-04-30T11:24:00.161Z,17.54
2019-04-30T11:25:02.588Z,17.30
2019-04-30T11:26:00.998Z,17.17
2019-04-30T11:27:01.367Z,17.33
2019-04-30T11:28:01.162Z,17.35
2019-04-30T11:29:01.050Z,17.17
2019-04-30T11:30:03.802Z,17.23
2019-04-30T11:31:01.274Z,17.35
2019-04-30T11:32:01.513Z,17.22
2019-04-30T11:33:01.742Z,17.36
2019-04-30T11:34:01.634Z,17.48
2019-04-30T11:35:01.787Z,17.54
2019-04-30T11:36:04.880Z,17.57
2019-04-30T11:37:02.093Z,17.57
2019-04-30T11:38:02.245Z,17.73
2019-04-30T11:39:02.399Z,17.81
2019-04-30T11:40:02.552Z,18.02
2019-04-30T11:41:02.707Z,17.64
2019-04-30T11:42:02.862Z,17.63
2019-04-30T11:43:03.014Z,17.82
2019-04-30T11:44:03.162Z,17.84
2019-04-30T11:45:03.315Z,17.82
2019-04-30T11:46:03.471Z,18.09
2019-04-30T11:47:03.624Z,17.95
2019-04-30T11:48:03.778Z,17.81
2019-04-30T11:49:03.932Z,17.53
2019-04-30T11:50:04.085Z,17.29
2019-04-30T11:51:04.238Z,17.14
2019-04-30T11:52:04.391Z,17.25
2019-04-30T11:53:14.130Z,17.54
2019-04-30T11:54:04.700Z,17.87
2019-04-30T11:55:04.853Z,17.74
2019-04-30T11:56:05.008Z,17.81
2019-04-30T11:57:05.161Z,18.04
2019-04-30T11:58:05.315Z,17.91
2019-04-30T11:59:05.470Z,18.12
2019-04-30T12:00:05.624Z,18.02
2019-04-30T12:01:05.780Z,18.21
2019-04-30T12:02:05.933Z,18.22
2019-04-30T12:03:06.087Z,18.21
2019-04-30T12:04:06.243Z,18.40
2019-04-30T12:05:06.397Z,18.42
2019-04-30T12:06:08.325Z,18.52
2019-04-30T12:07:06.705Z,18.52
2019-04-30T12:08:06.858Z,18.72
2019-04-30T12:09:09.037Z,18.58
2019-04-30T12:10:07.167Z,18.52
2019-04-30T12:11:07.322Z,18.40
2019-04-30T12:12:09.124Z,18.47
2019-04-30T12:13:09.517Z,18.64
2019-04-30T12:14:07.787Z,18.76
2019-04-30T12:15:09.327Z,18.94
2019-04-30T12:16:08.701Z,18.84
2019-04-30T12:17:08.251Z,18.57
2019-04-30T12:18:08.406Z,18.65
2019-04-30T12:19:09.077Z,18.76
2019-04-30T12:20:08.763Z,18.82
2019-04-30T12:21:08.868Z,18.98
2019-04-30T12:22:09.017Z,19.08
2019-04-30T12:23:11.746Z,18.90
2019-04-30T12:24:09.324Z,18.67
2019-04-30T12:25:09.996Z,18.61
2019-04-30T12:26:09.635Z,18.90
2019-04-30T12:27:09.787Z,19.06
2019-04-30T12:28:09.968Z,19.21
2019-04-30T12:29:11.244Z,19.23
2019-04-30T12:30:10.276Z,19.21
2019-04-30T12:31:10.430Z,19.32
2019-04-30T12:32:10.585Z,19.25
2019-04-30T12:33:10.741Z,19.25
2019-04-30T12:34:10.895Z,19.46
2019-04-30T12:35:11.050Z,19.43
2019-04-30T12:36:11.207Z,19.21
2019-04-30T12:37:11.362Z,18.76
2019-04-30T12:38:11.516Z,18.82
2019-04-30T12:39:11.670Z,18.94
2019-04-30T12:40:25.806Z,19.23
2019-04-30T12:41:11.980Z,19.40
2019-04-30T12:42:12.136Z,19.39
2019-04-30T12:43:12.290Z,19.08
2019-04-30T12:44:12.445Z,19.11
2019-04-30T12:45:12.600Z,19.42
2019-04-30T12:46:12.757Z,19.33
2019-04-30T12:47:12.910Z,19.35
2019-04-30T12:48:13.065Z,19.39
2019-04-30T12:49:13.220Z,19.54
2019-04-30T12:50:13.375Z,19.55
2019-04-30T12:51:13.531Z,19.48
2019-04-30T12:52:13.684Z,19.54
2019-04-30T12:53:13.840Z,19.57
2019-04-30T12:54:13.995Z,19.72
2019-04-30T12:55:15.586Z,19.57
2019-04-30T12:56:14.305Z,19.70
2019-04-30T12:57:14.461Z,18.86
2019-04-30T12:58:14.619Z,18.54
2019-04-30T12:59:14.776Z,18.95
2019-04-30T13:00:14.930Z,19.25
2019-04-30T13:01:15.082Z,19.35
2019-04-30T13:02:15.235Z,18.95
2019-04-30T13:03:15.390Z,18.92
2019-04-30T13:04:15.547Z,18.74
2019-04-30T13:05:15.703Z,18.59